createdAt,value
2017-11-17T00:00:08.327Z,96.74
2017-11-17T00:01:08.324Z,96.84
2017-11-17T00:02:08.306Z,96.74
2017-11-17T00:03:08.302Z,96.55
2017-11-17T00:04:08.285Z,96.74
2017-11-17T00:05:08.268Z,96.74
2017-11-17T00:06:08.256Z,96.74
2017-11-17T00:07:08.261Z,95.98
2017-11-17T00:08:08.234Z,96.65
2017-11-17T00:09:07.964Z,96.17
2017-11-17T00:10:08.218Z,96.08
2017-11-17T00:11:08.198Z,95.98
2017-11-17T00:12:08.190Z,95.89
2017-11-17T00:13:08.177Z,95.98
2017-11-17T00:14:07.908Z,96.65
2017-11-17T00:15:08.169Z,96.55
2017-11-17T00:16:08.151Z,96.55
2017-11-17T00:17:08.133Z,96.84
2017-11-17T00:18:07.865Z,96.55
2017-11-17T00:19:08.110Z,96.65
2017-11-17T00:20:08.104Z,96.74
2017-11-17T00:21:08.085Z,96.74
2017-11-17T00:22:08.076Z,96.55
2017-11-17T00:23:08.063Z,96.55
2017-11-17T00:24:08.055Z,96.55
2017-11-17T00:25:08.038Z,96.55
2017-11-17T00:26:07.774Z,96.74
2017-11-17T00:27:08.024Z,96.84
2017-11-17T00:28:08.009Z,97.12
2017-11-17T00:29:07.996Z,96.65
2017-11-17T00:30:07.987Z,96.79
2017-11-17T00:31:07.976Z,96.88
2017-11-17T00:32:07.963Z,96.6
2017-11-17T00:33:07.950Z,97.36
2017-11-17T00:34:07.942Z,97.07
2017-11-17T00:35:07.930Z,97.27
2017-11-17T00:36:07.918Z,96.98
2017-11-17T00:37:07.912Z,97.07
2017-11-17T00:38:07.893Z,97.27
2017-11-17T00:39:07.882Z,97.41
2017-11-17T00:40:07.612Z,96.93
2017-11-17T00:41:07.869Z,97.03
2017-11-17T00:42:07.852Z,97.03
2017-11-17T00:43:07.839Z,97.12
2017-11-17T00:44:07.823Z,97.12
2017-11-17T00:45:07.819Z,97.22
2017-11-17T00:46:07.541Z,97.03
2017-11-17T00:47:07.802Z,97.41
2017-11-17T00:48:07.792Z,96.55
2017-11-17T00:49:07.771Z,96.45
2017-11-17T00:50:07.758Z,96.45
2017-11-17T00:51:07.751Z,96.93
2017-11-17T00:52:07.738Z,96.65
2017-11-17T00:53:07.724Z,96.65
2017-11-17T00:54:07.717Z,96.74
2017-11-17T00:55:07.708Z,96.74
2017-11-17T00:56:07.693Z,96.84
2017-11-17T00:57:07.682Z,96.26
2017-11-17T00:58:07.433Z,96.36
2017-11-17T00:59:07.656Z,96.74
2017-11-17T01:00:07.649Z,96.74
2017-11-17T01:01:07.632Z,96.74
2017-11-17T01:02:07.625Z,96.74
2017-11-17T01:03:07.617Z,96.55
2017-11-17T01:04:07.343Z,96.65
2017-11-17T01:05:07.592Z,96.45
2017-11-17T01:06:07.574Z,96.65
2017-11-17T01:07:07.316Z,97.03
2017-11-17T01:08:07.573Z,97.5
2017-11-17T01:09:07.546Z,97.22
2017-11-17T01:10:07.540Z,96.84
2017-11-17T01:11:07.522Z,96.65
2017-11-17T01:12:07.514Z,96.93
2017-11-17T01:13:07.507Z,96.65
2017-11-17T01:14:07.490Z,96.93
2017-11-17T01:15:07.486Z,96.36
2017-11-17T01:16:07.208Z,96.74
2017-11-17T01:17:07.466Z,96.26
2017-11-17T01:18:07.189Z,96.55
2017-11-17T01:19:07.442Z,96.65
2017-11-17T01:20:07.424Z,96.93
2017-11-17T01:21:07.154Z,96.08
2017-11-17T01:22:07.422Z,96.55
2017-11-17T01:23:07.397Z,96.84
2017-11-17T01:24:07.125Z,95.89
2017-11-17T01:25:07.376Z,95.79
2017-11-17T01:26:07.099Z,95.94
2017-11-17T01:27:07.348Z,96.03
2017-11-17T01:28:07.077Z,96.22
2017-11-17T01:29:07.340Z,96.08
2017-11-17T01:30:07.314Z,96.22
2017-11-17T01:31:07.349Z,96.31
2017-11-17T01:32:07.331Z,96.41
2017-11-17T01:33:07.276Z,96.03
2017-11-17T01:34:07.016Z,96.22
2017-11-17T01:35:06.999Z,96.41
2017-11-17T01:36:07.247Z,96.12
2017-11-17T01:37:07.235Z,96.22
2017-11-17T01:38:07.228Z,96.03
2017-11-17T01:39:07.213Z,95.94
2017-11-17T01:40:07.201Z,96.5
2017-11-17T01:41:07.189Z,96.5
2017-11-17T01:42:06.921Z,96.69
2017-11-17T01:43:07.171Z,95.94
2017-11-17T01:44:07.160Z,96.12
2017-11-17T01:45:07.151Z,96.03
2017-11-17T01:46:06.879Z,96.12
2017-11-17T01:47:06.868Z,95.89
2017-11-17T01:48:07.116Z,96.36
2017-11-17T01:49:07.100Z,96.36
2017-11-17T01:50:07.093Z,95.98
2017-11-17T01:51:07.082Z,96.65
2017-11-17T01:52:07.083Z,96.74
2017-11-17T01:53:07.058Z,96.93
2017-11-17T01:54:07.051Z,96.84
2017-11-17T01:55:07.038Z,96.08
2017-11-17T01:56:07.027Z,96.17
2017-11-17T01:57:07.024Z,96.08
2017-11-17T01:58:07.009Z,96.17
2017-11-17T01:59:07.009Z,96.08
2017-11-17T02:00:06.982Z,95.98
2017-11-17T02:01:06.977Z,96.22
2017-11-17T02:02:06.969Z,96.26
2017-11-17T02:03:06.958Z,96.55
2017-11-17T02:04:06.938Z,96.74
2017-11-17T02:05:06.938Z,96.65
2017-11-17T02:06:06.933Z,96.65
2017-11-17T02:07:06.905Z,96.45
2017-11-17T02:08:06.894Z,96.84
2017-11-17T02:09:06.889Z,96.93
2017-11-17T02:10:06.869Z,96.74
2017-11-17T02:11:06.865Z,96.55
2017-11-17T02:12:06.850Z,96.65
2017-11-17T02:13:06.841Z,96.84
2017-11-17T02:14:06.832Z,96.36
2017-11-17T02:15:06.823Z,96.41
2017-11-17T02:16:06.807Z,96.79
2017-11-17T02:17:06.793Z,96.93
2017-11-17T02:18:06.785Z,97.31
2017-11-17T02:19:06.774Z,97.5
2017-11-17T02:20:06.763Z,97.5
2017-11-17T02:21:06.753Z,97.6
2017-11-17T02:22:06.743Z,97.69
2017-11-17T02:23:06.744Z,97.69
2017-11-17T02:24:06.727Z,98.26
2017-11-17T02:25:06.706Z,97.69
2017-11-17T02:26:06.716Z,98.36
2017-11-17T02:27:06.683Z,97.97
2017-11-17T02:28:06.683Z,97.97
2017-11-17T02:29:06.670Z,97.97
2017-11-17T02:30:06.657Z,97.97
2017-11-17T02:31:06.654Z,98.07
2017-11-17T02:32:06.644Z,98.45
2017-11-17T02:33:06.624Z,98.36
2017-11-17T02:34:06.611Z,98.36
2017-11-17T02:35:06.602Z,98.17
2017-11-17T02:36:06.594Z,98.36
2017-11-17T02:37:06.589Z,98.36
2017-11-17T02:38:06.563Z,98.17
2017-11-17T02:39:06.554Z,97.88
2017-11-17T02:40:06.552Z,97.97
2017-11-17T02:41:06.271Z,97.97
2017-11-17T02:42:06.520Z,98.07
2017-11-17T02:43:06.509Z,97.88
2017-11-17T02:44:06.513Z,98.45
2017-11-17T02:45:06.497Z,98.26
2017-11-17T02:46:06.217Z,98.17
2017-11-17T02:47:06.464Z,98.36
2017-11-17T02:48:06.462Z,97.97
2017-11-17T02:49:06.446Z,98.07
2017-11-17T02:50:06.437Z,98.07
2017-11-17T02:51:06.430Z,98.07
2017-11-17T02:52:06.410Z,97.78
2017-11-17T02:53:06.427Z,97.6
2017-11-17T02:54:06.392Z,98.07
2017-11-17T02:55:06.378Z,97.97
2017-11-17T02:56:06.366Z,98.36
2017-11-17T02:57:06.357Z,98.26
2017-11-17T02:58:06.342Z,98.17
2017-11-17T02:59:06.334Z,98.07
2017-11-17T03:00:06.330Z,97.97
2017-11-17T03:01:06.310Z,98.36
2017-11-17T03:02:06.302Z,98.26
2017-11-17T03:03:06.288Z,98.07
2017-11-17T03:04:06.283Z,97.97
2017-11-17T03:05:06.270Z,97.97
2017-11-17T03:06:06.258Z,97.88
2017-11-17T03:07:06.247Z,98.36
2017-11-17T03:08:06.233Z,98.07
2017-11-17T03:09:05.963Z,97.78
2017-11-17T03:10:06.215Z,98.07
2017-11-17T03:11:06.201Z,98.07
2017-11-17T03:12:05.930Z,97.41
2017-11-17T03:13:06.182Z,97.97
2017-11-17T03:14:06.167Z,98.36
2017-11-17T03:15:06.155Z,97.97
2017-11-17T03:16:06.148Z,98.07
2017-11-17T03:17:05.879Z,98.17
2017-11-17T03:18:05.862Z,98.17
2017-11-17T03:19:06.113Z,97.97
2017-11-17T03:20:06.102Z,98.17
2017-11-17T03:21:06.090Z,97.88
2017-11-17T03:22:06.080Z,97.88
2017-11-17T03:23:06.069Z,97.97
2017-11-17T03:24:05.796Z,98.07
2017-11-17T03:25:06.050Z,98.07
2017-11-17T03:26:05.774Z,98.22
2017-11-17T03:27:06.038Z,97.97
2017-11-17T03:28:06.013Z,97.78
2017-11-17T03:29:06.006Z,97.64
2017-11-17T03:30:06.001Z,97.88
2017-11-17T03:31:06.002Z,97.6
2017-11-17T03:32:05.999Z,97.22
2017-11-17T03:33:05.955Z,97.31
2017-11-17T03:34:05.950Z,97.6
2017-11-17T03:35:05.940Z,97.83
2017-11-17T03:36:05.665Z,97.41
2017-11-17T03:37:05.940Z,97.31
2017-11-17T03:38:05.907Z,97.36
2017-11-17T03:39:05.898Z,97.36
2017-11-17T03:40:05.902Z,97.31
2017-11-17T03:41:05.868Z,97.45
2017-11-17T03:42:05.861Z,97.17
2017-11-17T03:43:05.847Z,97.36
2017-11-17T03:44:05.850Z,97.5
2017-11-17T03:45:05.565Z,97.55
2017-11-17T03:46:05.813Z,97.83
2017-11-17T03:47:05.555Z,98.03
2017-11-17T03:48:05.792Z,97.93
2017-11-17T03:49:05.792Z,97.64
2017-11-17T03:50:05.792Z,97.27
2017-11-17T03:51:05.502Z,97.74
2017-11-17T03:52:05.755Z,97.55
2017-11-17T03:53:05.776Z,97.83
2017-11-17T03:54:05.726Z,97.74
2017-11-17T03:55:05.735Z,97.83
2017-11-17T03:56:05.705Z,98.03
2017-11-17T03:57:05.706Z,97.74
2017-11-17T03:58:05.684Z,97.83
2017-11-17T03:59:05.671Z,97.55
2017-11-17T04:00:05.667Z,97.45
2017-11-17T04:01:05.647Z,97.45
2017-11-17T04:02:05.642Z,97.27
2017-11-17T04:03:05.628Z,97.74
2017-11-17T04:04:05.617Z,97.55
2017-11-17T04:05:05.349Z,97.74
2017-11-17T04:06:05.343Z,97.36
2017-11-17T04:07:05.597Z,97.45
2017-11-17T04:08:05.574Z,97.45
2017-11-17T04:09:05.565Z,97.08
2017-11-17T04:10:05.298Z,97.64
2017-11-17T04:11:05.541Z,97.36
2017-11-17T04:12:05.565Z,97.64
2017-11-17T04:13:05.524Z,97.08
2017-11-17T04:14:05.516Z,97.17
2017-11-17T04:15:05.511Z,97.27
2017-11-17T04:16:05.489Z,97.08
2017-11-17T04:17:05.480Z,97.36
2017-11-17T04:18:05.468Z,96.89
2017-11-17T04:19:05.455Z,97.74
2017-11-17T04:20:05.188Z,97.74
2017-11-17T04:21:05.438Z,96.79
2017-11-17T04:22:05.420Z,97.55
2017-11-17T04:23:05.154Z,97.64
2017-11-17T04:24:05.406Z,97.55
2017-11-17T04:25:05.133Z,97.45
2017-11-17T04:26:05.123Z,97.45
2017-11-17T04:27:05.369Z,97.55
2017-11-17T04:28:05.365Z,97.83
2017-11-17T04:29:05.350Z,97.83
2017-11-17T04:30:05.343Z,96.98
2017-11-17T04:31:05.326Z,97.64
2017-11-17T04:32:05.317Z,97.74
2017-11-17T04:33:05.316Z,97.17
2017-11-17T04:34:05.294Z,97.55
2017-11-17T04:35:05.026Z,97.27
2017-11-17T04:36:05.274Z,97.17
2017-11-17T04:37:05.270Z,97.64
2017-11-17T04:38:05.253Z,97.08
2017-11-17T04:39:05.247Z,97.27
2017-11-17T04:40:04.972Z,97.74
2017-11-17T04:41:04.964Z,97.45
2017-11-17T04:42:05.209Z,97.74
2017-11-17T04:43:05.206Z,97.36
2017-11-17T04:44:05.189Z,97.36
2017-11-17T04:45:05.178Z,97.45
2017-11-17T04:46:04.912Z,97.45
2017-11-17T04:47:04.898Z,97.17
2017-11-17T04:48:05.149Z,96.89
2017-11-17T04:49:05.132Z,96.79
2017-11-17T04:50:04.893Z,96.98
2017-11-17T04:51:05.112Z,97.36
2017-11-17T04:52:04.844Z,97.36
2017-11-17T04:53:05.090Z,97.64
2017-11-17T04:54:05.084Z,97.74
2017-11-17T04:55:05.077Z,97.64
2017-11-17T04:56:05.060Z,97.83
2017-11-17T04:57:05.070Z,97.08
2017-11-17T04:58:05.042Z,96.98
2017-11-17T04:59:04.769Z,96.89
2017-11-17T05:00:04.762Z,97.27
2017-11-17T05:01:05.008Z,96.98
2017-11-17T05:02:04.995Z,97.64
2017-11-17T05:03:04.987Z,97.27
2017-11-17T05:04:04.977Z,97.74
2017-11-17T05:05:04.968Z,97.27
2017-11-17T05:06:04.696Z,96.98
2017-11-17T05:07:04.945Z,96.89
2017-11-17T05:08:04.935Z,96.89
2017-11-17T05:09:04.919Z,97.45
2017-11-17T05:10:04.913Z,97.74
2017-11-17T05:11:04.901Z,97.45
2017-11-17T05:12:04.893Z,97.55
2017-11-17T05:13:04.878Z,97.45
2017-11-17T05:14:04.869Z,97.55
2017-11-17T05:15:04.860Z,97.31
2017-11-17T05:16:04.850Z,97.79
2017-11-17T05:17:04.837Z,97.74
2017-11-17T05:18:04.835Z,97.5
2017-11-17T05:19:04.820Z,96.94
2017-11-17T05:20:04.808Z,97.03
2017-11-17T05:21:04.800Z,97.03
2017-11-17T05:22:04.780Z,96.94
2017-11-17T05:23:04.774Z,97.03
2017-11-17T05:24:04.766Z,97.03
2017-11-17T05:25:04.751Z,97.22
2017-11-17T05:26:04.748Z,97.31
2017-11-17T05:27:04.737Z,97.31
2017-11-17T05:28:04.722Z,97.03
2017-11-17T05:29:04.714Z,96.74
2017-11-17T05:30:04.700Z,97.03
2017-11-17T05:31:04.686Z,97.03
2017-11-17T05:32:04.692Z,96.65
2017-11-17T05:33:04.667Z,97.41
2017-11-17T05:34:04.671Z,97.13
2017-11-17T05:35:04.392Z,97.31
2017-11-17T05:36:04.637Z,97.13
2017-11-17T05:37:04.627Z,97.31
2017-11-17T05:38:04.618Z,96.94
2017-11-17T05:39:04.605Z,97.13
2017-11-17T05:40:04.594Z,97.31
2017-11-17T05:41:04.588Z,96.94
2017-11-17T05:42:04.606Z,97.31
2017-11-17T05:43:04.561Z,97.31
2017-11-17T05:44:04.561Z,97.31
2017-11-17T05:45:04.555Z,97.22
2017-11-17T05:46:04.533Z,97.22
2017-11-17T05:47:04.520Z,97.13
2017-11-17T05:48:04.511Z,97.03
2017-11-17T05:49:04.504Z,97.13
2017-11-17T05:50:04.496Z,97.03
2017-11-17T05:51:04.480Z,97.22
2017-11-17T05:52:04.474Z,97.03
2017-11-17T05:53:04.486Z,97.31
2017-11-17T05:54:04.453Z,96.74
2017-11-17T05:55:04.446Z,96.74
2017-11-17T05:56:04.446Z,97.03
2017-11-17T05:57:04.416Z,97.03
2017-11-17T05:58:04.417Z,97.41
2017-11-17T05:59:04.138Z,97.22
2017-11-17T06:00:04.387Z,96.36
2017-11-17T06:01:04.373Z,96.55
2017-11-17T06:02:04.365Z,96.79
2017-11-17T06:03:04.358Z,96.46
2017-11-17T06:04:04.344Z,96.46
2017-11-17T06:05:04.337Z,96.26
2017-11-17T06:06:04.324Z,96.26
2017-11-17T06:07:04.318Z,96.65
2017-11-17T06:08:04.311Z,96.17
2017-11-17T06:09:04.296Z,96.74
2017-11-17T06:10:04.290Z,96.74
2017-11-17T06:11:04.275Z,96.36
2017-11-17T06:12:04.275Z,96.46
2017-11-17T06:13:04.267Z,96.65
2017-11-17T06:14:04.245Z,96.55
2017-11-17T06:15:04.246Z,97.22
2017-11-17T06:16:04.223Z,96.94
2017-11-17T06:17:04.223Z,97.31
2017-11-17T06:18:04.200Z,97.03
2017-11-17T06:19:04.192Z,97.31
2017-11-17T06:20:04.178Z,97.03
2017-11-17T06:21:04.173Z,97.13
2017-11-17T06:22:04.161Z,97.22
2017-11-17T06:23:04.148Z,97.22
2017-11-17T06:24:04.136Z,96.84
2017-11-17T06:25:04.136Z,97.03
2017-11-17T06:26:04.117Z,97.13
2017-11-17T06:27:04.110Z,96.94
2017-11-17T06:28:04.109Z,97.03
2017-11-17T06:29:04.675Z,97.03
2017-11-17T06:30:04.081Z,97.22
2017-11-17T06:31:04.067Z,97.03
2017-11-17T06:32:04.056Z,97.03
2017-11-17T06:33:04.055Z,96.84
2017-11-17T06:34:03.773Z,97.03
2017-11-17T06:35:04.026Z,97.03
2017-11-17T06:36:04.013Z,97.03
2017-11-17T06:37:04.010Z,97.13
2017-11-17T06:38:03.992Z,96.84
2017-11-17T06:39:03.981Z,96.94
2017-11-17T06:40:03.971Z,96.94
2017-11-17T06:41:03.961Z,96.94
2017-11-17T06:42:03.961Z,96.94
2017-11-17T06:43:03.949Z,97.22
2017-11-17T06:44:03.929Z,97.22
2017-11-17T06:45:03.921Z,97.22
2017-11-17T06:46:03.923Z,97.13
2017-11-17T06:47:03.649Z,97.03
2017-11-17T06:48:03.889Z,97.03
2017-11-17T06:49:03.878Z,97.31
2017-11-17T06:50:03.873Z,97.22
2017-11-17T06:51:03.856Z,97.31
2017-11-17T06:52:03.856Z,97.41
2017-11-17T06:53:03.837Z,97.22
2017-11-17T06:54:03.831Z,97.41
2017-11-17T06:55:03.826Z,97.31
2017-11-17T06:56:03.563Z,97.03
2017-11-17T06:57:03.826Z,97.22
2017-11-17T06:58:03.797Z,97.03
2017-11-17T06:59:03.527Z,97.13
2017-11-17T07:00:03.765Z,96.94
2017-11-17T07:01:03.764Z,96.84
2017-11-17T07:02:03.743Z,96.94
2017-11-17T07:03:03.756Z,97.03
2017-11-17T07:04:03.725Z,97.03
2017-11-17T07:05:03.718Z,96.46
2017-11-17T07:06:03.704Z,96.84
2017-11-17T07:07:03.706Z,96.46
2017-11-17T07:08:03.682Z,96.26
2017-11-17T07:09:03.674Z,96.74
2017-11-17T07:10:03.663Z,95.89
2017-11-17T07:11:03.659Z,96.65
2017-11-17T07:12:03.648Z,96.36
2017-11-17T07:13:03.652Z,96.65
2017-11-17T07:14:03.623Z,96.65
2017-11-17T07:15:03.613Z,96.74
2017-11-17T07:16:03.602Z,96.65
2017-11-17T07:17:03.592Z,96.46
2017-11-17T07:18:03.592Z,96.89
2017-11-17T07:19:03.590Z,96.51
2017-11-17T07:20:03.630Z,96.7
2017-11-17T07:21:03.601Z,96.03
2017-11-17T07:22:03.545Z,95.75
2017-11-17T07:23:03.530Z,96.12
2017-11-17T07:24:03.528Z,96.7
2017-11-17T07:25:03.514Z,96.6
2017-11-17T07:26:03.513Z,96.41
2017-11-17T07:27:03.493Z,96.31
2017-11-17T07:28:03.488Z,96.12
2017-11-17T07:29:03.473Z,95.94
2017-11-17T07:30:03.462Z,95.75
2017-11-17T07:31:03.470Z,95.94
2017-11-17T07:32:03.442Z,96.03
2017-11-17T07:33:03.434Z,95.89
2017-11-17T07:34:03.426Z,96.74
2017-11-17T07:35:03.416Z,96.26
2017-11-17T07:36:03.431Z,96.17
2017-11-17T07:37:03.396Z,96.94
2017-11-17T07:38:03.392Z,96.74
2017-11-17T07:39:03.397Z,96.46
2017-11-17T07:40:03.373Z,96.36
2017-11-17T07:41:03.357Z,96.65
2017-11-17T07:42:03.343Z,96.84
2017-11-17T07:43:03.073Z,96.65
2017-11-17T07:44:03.322Z,96.65
2017-11-17T07:45:03.322Z,97.13
2017-11-17T07:46:03.304Z,97.36
2017-11-17T07:47:03.304Z,96.98
2017-11-17T07:48:03.287Z,97.27
2017-11-17T07:49:03.287Z,97.36
2017-11-17T07:50:03.265Z,97.36
2017-11-17T07:51:02.991Z,97.36
2017-11-17T07:52:03.248Z,97.36
2017-11-17T07:53:03.267Z,97.36
2017-11-17T07:54:03.234Z,97.08
2017-11-17T07:55:02.959Z,97.08
2017-11-17T07:56:03.203Z,97.36
2017-11-17T07:57:02.968Z,97.08
2017-11-17T07:58:03.202Z,97.36
2017-11-17T07:59:03.228Z,97.55
2017-11-17T08:00:03.180Z,97.83
2017-11-17T08:01:03.151Z,97.74
2017-11-17T08:02:03.139Z,97.74
2017-11-17T08:03:02.876Z,98.03
2017-11-17T08:04:03.119Z,97.83
2017-11-17T08:05:03.174Z,97.74
2017-11-17T08:06:03.099Z,97.64
2017-11-17T08:07:03.097Z,97.55
2017-11-17T08:08:03.081Z,97.55
2017-11-17T08:09:03.094Z,97.93
2017-11-17T08:10:03.060Z,97.74
2017-11-17T08:11:03.058Z,97.93
2017-11-17T08:12:03.032Z,97.83
2017-11-17T08:13:03.033Z,98.03
2017-11-17T08:14:03.020Z,98.03
2017-11-17T08:15:03.010Z,97.93
2017-11-17T08:16:02.762Z,97.93
2017-11-17T08:17:03.034Z,97.83
2017-11-17T08:18:02.981Z,97.93
2017-11-17T08:19:02.965Z,97.83
2017-11-17T08:20:02.959Z,98.22
2017-11-17T08:21:02.941Z,97.93
2017-11-17T08:22:02.935Z,98.03
2017-11-17T08:23:02.926Z,98.12
2017-11-17T08:24:02.913Z,98.12
2017-11-17T08:25:02.904Z,98.12
2017-11-17T08:26:02.889Z,97.93
2017-11-17T08:27:02.882Z,98.03
2017-11-17T08:28:02.878Z,97.83
2017-11-17T08:29:02.860Z,97.74
2017-11-17T08:30:02.853Z,98.03
2017-11-17T08:31:02.854Z,98.03
2017-11-17T08:32:03.255Z,97.74
2017-11-17T08:33:02.818Z,97.93
2017-11-17T08:34:02.551Z,98.03
2017-11-17T08:35:02.539Z,97.74
2017-11-17T08:36:02.798Z,97.55
2017-11-17T08:37:02.772Z,97.45
2017-11-17T08:38:02.772Z,97.45
2017-11-17T08:39:02.754Z,97.74
2017-11-17T08:40:02.485Z,97.55
2017-11-17T08:41:02.743Z,97.36
2017-11-17T08:42:02.761Z,97.74
2017-11-17T08:43:02.455Z,97.36
2017-11-17T08:44:02.717Z,97.55
2017-11-17T08:45:02.716Z,97.74
2017-11-17T08:46:02.687Z,97.74
2017-11-17T08:47:02.713Z,97.55
2017-11-17T08:48:02.707Z,96.89
2017-11-17T08:49:02.752Z,97.08
2017-11-17T08:50:02.426Z,97.17
2017-11-17T08:51:02.684Z,96.89
2017-11-17T08:52:02.626Z,96.98
2017-11-17T08:53:02.665Z,97.17
2017-11-17T08:54:02.641Z,97.08
2017-11-17T08:55:02.595Z,96.79
2017-11-17T08:56:02.633Z,96.98
2017-11-17T08:57:02.657Z,97.17
2017-11-17T08:58:02.784Z,97.08
2017-11-17T08:59:02.559Z,97.17
2017-11-17T09:00:02.572Z,97.08
2017-11-17T09:01:02.343Z,97.08
2017-11-17T09:02:02.600Z,97.17
2017-11-17T09:03:02.591Z,96.84
2017-11-17T09:04:02.619Z,96.26
2017-11-17T09:05:02.524Z,95.98
2017-11-17T09:06:02.532Z,96.74
2017-11-17T09:07:02.482Z,96.55
2017-11-17T09:08:02.470Z,96.08
2017-11-17T09:09:02.465Z,96.36
2017-11-17T09:10:02.437Z,95.51
2017-11-17T09:11:02.430Z,95.7
2017-11-17T09:12:02.420Z,95.51
2017-11-17T09:13:02.414Z,95.12
2017-11-17T09:14:02.413Z,95.41
2017-11-17T09:15:02.391Z,95.03
2017-11-17T09:16:02.392Z,95.22
2017-11-17T09:17:02.372Z,94.74
2017-11-17T09:18:02.363Z,95.12
2017-11-17T09:19:02.350Z,94.93
2017-11-17T09:20:02.364Z,94.84
2017-11-17T09:21:02.395Z,95.03
2017-11-17T09:22:02.052Z,94.93
2017-11-17T09:23:02.050Z,94.93
2017-11-17T09:24:02.310Z,94.74
2017-11-17T09:25:02.313Z,94.74
2017-11-17T09:26:02.353Z,94.65
2017-11-17T09:27:02.309Z,95.22
2017-11-17T09:28:02.283Z,94.84
2017-11-17T09:29:02.355Z,94.84
2017-11-17T09:30:02.021Z,94.74
2017-11-17T09:31:02.297Z,94.56
2017-11-17T09:32:02.000Z,94.56
2017-11-17T09:33:02.220Z,94.74
2017-11-17T09:34:02.235Z,94.46
2017-11-17T09:35:02.207Z,94.27
2017-11-17T09:36:02.173Z,94.56
2017-11-17T09:37:01.913Z,94.56
2017-11-17T09:38:02.173Z,94.56
2017-11-17T09:39:02.149Z,94.7
2017-11-17T09:40:02.148Z,94.37
2017-11-17T09:41:02.135Z,93.89
2017-11-17T09:42:01.854Z,94.18
2017-11-17T09:43:02.154Z,94.13
2017-11-17T09:44:01.863Z,94.32
2017-11-17T09:45:02.106Z,94.22
2017-11-17T09:46:02.104Z,94.32
2017-11-17T09:47:02.086Z,94.6
2017-11-17T09:48:02.088Z,94.79
2017-11-17T09:49:02.090Z,94.32
2017-11-17T09:50:02.075Z,94.89
2017-11-17T09:51:02.308Z,94.7
2017-11-17T09:52:02.084Z,94.89
2017-11-17T09:53:02.069Z,94.51
2017-11-17T09:54:01.996Z,94.7
2017-11-17T09:55:02.011Z,94.13
2017-11-17T09:56:01.976Z,94.51
2017-11-17T09:57:01.968Z,94.03
2017-11-17T09:58:01.969Z,94.03
2017-11-17T09:59:01.946Z,93.84
2017-11-17T10:00:01.949Z,93.55
2017-11-17T10:01:01.936Z,93.27
2017-11-17T10:02:01.917Z,93.18
2017-11-17T10:03:01.910Z,92.79
2017-11-17T10:04:01.907Z,92.79
2017-11-17T10:05:01.894Z,93.37
2017-11-17T10:06:01.889Z,92.99
2017-11-17T10:07:01.875Z,92.99
2017-11-17T10:08:01.864Z,92.89
2017-11-17T10:09:01.850Z,93.37
2017-11-17T10:10:01.840Z,93.27
2017-11-17T10:11:01.831Z,93.46
2017-11-17T10:12:01.837Z,93.27
2017-11-17T10:13:01.820Z,93.18
2017-11-17T10:14:01.818Z,92.84
2017-11-17T10:15:01.793Z,92.74
2017-11-17T10:16:01.793Z,92.27
2017-11-17T10:17:01.777Z,92.55
2017-11-17T10:18:01.758Z,92.55
2017-11-17T10:19:01.769Z,92.84
2017-11-17T10:20:01.756Z,93.03
2017-11-17T10:21:01.749Z,92.74
2017-11-17T10:22:01.739Z,92.18
2017-11-17T10:23:01.733Z,92.65
2017-11-17T10:24:01.707Z,92.36
2017-11-17T10:25:01.725Z,92.27
2017-11-17T10:26:01.708Z,92.36
2017-11-17T10:27:01.721Z,92.18
2017-11-17T10:28:01.721Z,92.84
2017-11-17T10:29:01.700Z,92.55
2017-11-17T10:30:01.891Z,92.84
2017-11-17T10:31:01.653Z,92.08
2017-11-17T10:32:01.687Z,92.18
2017-11-17T10:33:01.646Z,92.46
2017-11-17T10:34:01.627Z,91.51
2017-11-17T10:35:01.640Z,91.41
2017-11-17T10:36:01.621Z,91.79
2017-11-17T10:37:01.587Z,91.79
2017-11-17T10:38:01.590Z,91.31
2017-11-17T10:39:01.578Z,91.41
2017-11-17T10:40:01.559Z,91.99
2017-11-17T10:41:01.585Z,91.27
2017-11-17T10:42:01.558Z,91.55
2017-11-17T10:43:01.569Z,90.89
2017-11-17T10:44:01.574Z,90.98
2017-11-17T10:45:01.527Z,90.5
2017-11-17T10:46:01.532Z,91.08
2017-11-17T10:47:01.509Z,90.89
2017-11-17T10:48:01.534Z,90.5
2017-11-17T10:49:01.481Z,90.12
2017-11-17T10:50:01.542Z,90.6
2017-11-17T10:51:01.498Z,90.22
2017-11-17T10:52:01.473Z,90.41
2017-11-17T10:53:01.459Z,90.5
2017-11-17T10:54:01.451Z,90.6
2017-11-17T10:55:01.432Z,91.17
2017-11-17T10:56:01.430Z,90.98
2017-11-17T10:57:01.413Z,90.7
2017-11-17T10:58:01.423Z,89.26
2017-11-17T10:59:01.409Z,89.55
2017-11-17T11:00:01.396Z,89.46
2017-11-17T11:01:01.439Z,88.89
2017-11-17T11:02:01.441Z,88.7
2017-11-17T11:03:01.442Z,88.51
2017-11-17T11:04:01.369Z,88.41
2017-11-17T11:05:01.340Z,87.65
2017-11-17T11:06:01.346Z,88.41
2017-11-17T11:07:01.337Z,88.6
2017-11-17T11:08:01.431Z,88.31
2017-11-17T11:09:01.323Z,87.6
2017-11-17T11:10:01.308Z,88.51
2017-11-17T11:11:01.022Z,88.65
2017-11-17T11:12:01.290Z,88.08
2017-11-17T11:13:01.268Z,88.65
2017-11-17T11:14:01.295Z,88.27
2017-11-17T11:15:01.267Z,87.79
2017-11-17T11:16:01.294Z,88.18
2017-11-17T11:17:01.284Z,88.65
2017-11-17T11:18:01.266Z,88.65
2017-11-17T11:19:01.236Z,89.22
2017-11-17T11:20:01.207Z,88.46
2017-11-17T11:21:01.195Z,88.27
2017-11-17T11:22:01.189Z,88.93
2017-11-17T11:23:01.189Z,88.65
2017-11-17T11:24:01.181Z,88.46
2017-11-17T11:25:01.175Z,88.75
2017-11-17T11:26:01.145Z,88.27
2017-11-17T11:27:01.149Z,88.18
2017-11-17T11:28:01.183Z,88.37
2017-11-17T11:29:01.141Z,88.46
2017-11-17T11:30:01.123Z,88.37
2017-11-17T11:31:00.845Z,88.08
2017-11-17T11:32:01.111Z,88.79
2017-11-17T11:33:01.096Z,88.23
2017-11-17T11:34:01.072Z,88.23
2017-11-17T11:35:01.075Z,88.6
2017-11-17T11:36:01.065Z,88.32
2017-11-17T11:37:01.073Z,88.6
2017-11-17T11:38:01.084Z,88.89
2017-11-17T11:39:01.029Z,89.08
2017-11-17T11:40:01.235Z,88.79
2017-11-17T11:41:01.006Z,88.99
2017-11-17T11:42:01.057Z,89.37
2017-11-17T11:43:01.057Z,89.56
2017-11-17T11:44:01.045Z,90.03
2017-11-17T11:45:01.273Z,90.03
2017-11-17T11:46:01.027Z,90.32
2017-11-17T11:47:01.021Z,90.7
2017-11-17T11:48:01.011Z,90.61
2017-11-17T11:49:01.197Z,90.8
2017-11-17T11:50:00.971Z,90.99
2017-11-17T11:51:00.972Z,90.7
2017-11-17T11:52:00.965Z,90.89
2017-11-17T11:53:00.680Z,90.99
2017-11-17T11:54:00.677Z,90.51
2017-11-17T11:55:00.935Z,90.7
2017-11-17T11:56:00.924Z,90.89
2017-11-17T11:57:00.893Z,90.99
2017-11-17T11:58:00.895Z,90.99
2017-11-17T11:59:00.877Z,90.66
2017-11-17T12:00:00.872Z,90.61
2017-11-17T12:01:00.870Z,90.7
2017-11-17T12:02:01.106Z,90.51
2017-11-17T12:03:00.844Z,90.84
2017-11-17T12:04:00.829Z,90.61
2017-11-17T12:05:00.806Z,90.66
2017-11-17T12:06:00.830Z,90.47
2017-11-17T12:07:00.805Z,90.7
2017-11-17T12:08:00.802Z,90.61
2017-11-17T12:09:00.778Z,90.51
2017-11-17T12:10:00.734Z,90.75
2017-11-17T12:11:00.745Z,90.66
2017-11-17T12:12:00.707Z,90.66
2017-11-17T12:13:00.700Z,90.51
2017-11-17T12:14:00.716Z,90.89
2017-11-17T12:15:00.714Z,90.22
2017-11-17T12:16:00.711Z,90.22
2017-11-17T12:17:00.680Z,90.22
2017-11-17T12:18:00.708Z,90.32
2017-11-17T12:19:00.650Z,89.65
2017-11-17T12:20:00.623Z,90.13
2017-11-17T12:21:00.625Z,89.94
2017-11-17T12:22:00.636Z,90.03
2017-11-17T12:23:00.609Z,89.84
2017-11-17T12:24:00.606Z,89.56
2017-11-17T12:25:00.663Z,89.47
2017-11-17T12:26:00.579Z,88.6
2017-11-17T12:27:00.576Z,87.89
2017-11-17T12:28:00.548Z,87.89
2017-11-17T12:29:00.545Z,87.32
2017-11-17T12:30:00.523Z,86.46
2017-11-17T12:31:00.556Z,86.18
2017-11-17T12:32:00.513Z,85.89
2017-11-17T12:33:00.264Z,85.7
2017-11-17T12:34:00.506Z,86.32
2017-11-17T12:35:00.503Z,86.03
2017-11-17T12:36:00.471Z,85.93
2017-11-17T12:37:00.489Z,85.08
2017-11-17T12:38:00.458Z,84.31
2017-11-17T12:39:00.457Z,83.65
2017-11-17T12:40:00.511Z,82.79
2017-11-17T12:41:00.445Z,82.41
2017-11-17T12:42:00.414Z,81.65
2017-11-17T12:43:00.437Z,81.84
2017-11-17T12:44:00.399Z,82.03
2017-11-17T12:45:00.407Z,82.21
2017-11-17T12:46:00.128Z,82.31
2017-11-17T12:47:00.371Z,82.46
2017-11-17T12:48:00.361Z,83.07
2017-11-17T12:49:00.354Z,82.65
2017-11-17T12:50:00.361Z,83.51
2017-11-17T12:51:00.353Z,83.41
2017-11-17T12:52:00.373Z,83.51
2017-11-17T12:53:00.321Z,82.56